createdAt,value
2018-12-24T00:02:10.481Z,0.40
2018-12-24T00:07:11.717Z,0.80
2018-12-24T00:12:13.059Z,0.30
2018-12-24T00:17:14.293Z,0.20
2018-12-24T00:22:15.529Z,0.20
2018-12-24T00:27:17.080Z,0.63
2018-12-24T00:32:18.303Z,0.33
2018-12-24T00:37:19.544Z,0.50
2018-12-24T00:42:20.765Z,0.70
2018-12-24T00:47:22.107Z,0.20
2018-12-24T00:52:23.329Z,0.10
2018-12-24T00:57:24.549Z,0.27
2018-12-24T01:02:25.768Z,0.50
2018-12-24T01:07:26.983Z,0.20
2018-12-24T01:12:28.215Z,0.40
2018-12-24T01:17:29.427Z,0.07
2018-12-24T01:22:30.655Z,0.30
2018-12-24T01:27:31.891Z,0.17
2018-12-24T01:32:33.112Z,0.20
2018-12-24T01:37:34.373Z,0.10
2018-12-24T01:42:35.655Z,0.47
2018-12-24T01:47:37.259Z,0.30
2018-12-24T01:52:38.560Z,0.27
2018-12-24T01:57:39.770Z,0.10
2018-12-24T02:02:40.991Z,0.30
2018-12-24T02:07:42.217Z,0.20
2018-12-24T02:12:43.464Z,0.20
2018-12-24T02:17:44.683Z,0.70
2018-12-24T02:22:45.936Z,0.20
2018-12-24T02:27:48.082Z,0.20
2018-12-24T02:32:49.283Z,0.40
2018-12-24T02:37:50.536Z,0.43
2018-12-24T02:42:52.464Z,0.40
2018-12-24T02:47:54.179Z,0.30
2018-12-24T02:52:55.415Z,0.20
2018-12-24T02:57:56.621Z,0.40
2018-12-24T03:02:57.832Z,0.70
2018-12-24T03:07:59.054Z,0.70
2018-12-24T03:13:02.737Z,0.77
2018-12-24T03:18:03.407Z,0.23
2018-12-24T03:23:04.671Z,0.60
2018-12-24T03:28:05.860Z,0.67
2018-12-24T03:33:07.106Z,0.63
2018-12-24T03:38:12.102Z,0.40
2018-12-24T03:43:13.324Z,0.40
2018-12-24T03:48:14.672Z,0.40
2018-12-24T03:53:15.899Z,0.70
2018-12-24T03:58:17.135Z,0.50
2018-12-24T04:03:18.349Z,0.47
2018-12-24T04:08:19.563Z,0.70
2018-12-24T04:13:22.571Z,0.90
2018-12-24T04:18:23.951Z,0.43
2018-12-24T04:23:25.162Z,0.20
2018-12-24T04:28:27.409Z,0.10
2018-12-24T04:33:28.639Z,0.90
2018-12-24T04:38:29.976Z,0.30
2018-12-24T04:43:32.378Z,0.30
2018-12-24T04:48:34.129Z,0.80
2018-12-24T04:53:35.345Z,0.37
2018-12-24T04:58:36.590Z,0.60
2018-12-24T05:03:37.809Z,3.80
2018-12-24T05:08:39.022Z,0.77
2018-12-24T05:13:40.975Z,1.10
2018-12-24T05:18:42.572Z,1.30
2018-12-24T05:23:43.798Z,1.47
2018-12-24T05:28:44.997Z,0.93
2018-12-24T05:33:46.219Z,1.00
2018-12-24T05:38:47.463Z,1.10
2018-12-24T05:43:49.484Z,0.70
2018-12-24T05:48:51.558Z,0.70
2018-12-24T05:53:52.759Z,1.07
2018-12-24T05:58:53.974Z,1.57
2018-12-24T06:03:57.124Z,0.93
2018-12-24T06:08:58.378Z,0.80
2018-12-24T06:13:59.594Z,0.63
2018-12-24T06:19:00.819Z,1.07
2018-12-24T06:24:02.451Z,0.87
2018-12-24T06:29:03.783Z,1.03
2018-12-24T06:34:05.008Z,2.07
2018-12-24T06:39:06.256Z,3.73
2018-12-24T06:44:07.468Z,8.13
2018-12-24T06:49:08.702Z,2.57
2018-12-24T06:54:09.920Z,4.07
2018-12-24T06:59:11.150Z,1.47
2018-12-24T07:04:12.339Z,0.93
2018-12-24T07:09:13.690Z,0.47
2018-12-24T07:14:15.547Z,0.90
2018-12-24T07:19:17.133Z,0.50
2018-12-24T07:24:18.355Z,0.70
2018-12-24T07:29:19.580Z,0.60
2018-12-24T07:34:20.798Z,0.80
2018-12-24T07:39:22.035Z,1.63
2018-12-24T07:44:24.321Z,2.30
2018-12-24T07:49:25.890Z,1.90
2018-12-24T07:54:27.112Z,1.33
2018-12-24T07:59:28.639Z,3.50
2018-12-24T08:04:29.864Z,2.90
2018-12-24T08:09:31.096Z,2.13
2018-12-24T08:14:33.246Z,2.40
2018-12-24T08:19:35.140Z,3.20
2018-12-24T08:24:36.383Z,1.30
2018-12-24T08:29:38.312Z,1.80
2018-12-24T08:34:39.548Z,1.93
2018-12-24T08:39:40.799Z,3.00
2018-12-24T08:44:42.217Z,3.97
2018-12-24T08:49:43.675Z,5.27
2018-12-24T08:54:44.903Z,2.93
2018-12-24T08:59:46.134Z,1.97
2018-12-24T09:04:47.346Z,2.60
2018-12-24T09:09:48.568Z,3.80
2018-12-24T09:14:50.366Z,4.20
2018-12-24T09:19:52.008Z,3.30
2018-12-24T09:24:53.228Z,3.37
2018-12-24T09:29:54.468Z,2.50
2018-12-24T09:34:55.688Z,1.93
2018-12-24T09:39:56.907Z,1.90
2018-12-24T09:44:59.075Z,2.20
2018-12-24T09:50:00.639Z,1.80
2018-12-24T09:55:02.018Z,2.07
2018-12-24T10:00:07.053Z,1.80
2018-12-24T10:05:08.481Z,1.80
2018-12-24T10:10:09.816Z,1.63
2018-12-24T10:15:11.048Z,1.10
2018-12-24T10:20:12.313Z,1.80
2018-12-24T10:25:13.528Z,1.70
2018-12-24T10:30:14.853Z,1.80
2018-12-24T10:35:16.075Z,1.20
2018-12-24T10:40:17.423Z,2.67
2018-12-24T10:45:18.663Z,1.87
2018-12-24T10:50:20.020Z,1.67
2018-12-24T10:55:21.249Z,2.53
2018-12-24T11:00:22.485Z,0.83
2018-12-24T11:06:28.195Z,0.90
2018-12-24T11:11:29.997Z,1.10
2018-12-24T11:16:31.230Z,1.30
2018-12-24T11:21:32.344Z,1.20
2018-12-24T11:26:33.444Z,1.07
2018-12-24T11:31:34.568Z,1.30
2018-12-24T11:36:35.680Z,1.83
2018-12-24T11:41:36.814Z,3.70
2018-12-24T11:46:37.918Z,2.70
2018-12-24T11:51:39.048Z,3.43
2018-12-24T11:56:40.156Z,3.57
2018-12-24T12:01:41.244Z,2.97
2018-12-24T12:06:42.368Z,4.47
2018-12-24T12:11:43.468Z,2.53
2018-12-24T12:16:44.592Z,3.10
2018-12-24T12:21:45.716Z,2.07
2018-12-24T12:26:47.920Z,2.67
2018-12-24T12:31:51.057Z,2.17
2018-12-24T12:36:52.041Z,2.00
2018-12-24T12:41:53.144Z,2.30
2018-12-24T12:46:54.254Z,2.07
2018-12-24T12:51:55.374Z,1.70
2018-12-24T12:56:56.489Z,3.20
2018-12-24T13:01:57.595Z,2.63
2018-12-24T13:06:58.722Z,2.90
2018-12-24T13:11:59.823Z,3.53
2018-12-24T13:17:00.952Z,2.30
2018-12-24T13:22:04.393Z,4.57
2018-12-24T13:27:06.897Z,5.40
2018-12-24T13:32:08.062Z,2.97
2018-12-24T13:37:09.162Z,4.30
2018-12-24T13:42:10.262Z,2.80
2018-12-24T13:47:11.347Z,3.40
2018-12-24T13:52:12.504Z,3.10
2018-12-24T13:57:13.591Z,3.80
2018-12-24T14:02:16.521Z,3.10
2018-12-24T14:07:18.792Z,2.43
2018-12-24T14:12:19.988Z,2.53
2018-12-24T14:17:21.179Z,2.07
2018-12-24T14:22:22.275Z,2.70
2018-12-24T14:27:23.412Z,2.60
2018-12-24T14:32:24.519Z,2.40
2018-12-24T14:37:25.610Z,5.27
2018-12-24T14:42:26.799Z,4.93
2018-12-24T14:47:27.875Z,2.90
2018-12-24T14:52:28.995Z,3.40
2018-12-24T14:57:30.120Z,2.77
2018-12-24T15:02:31.224Z,2.17
2018-12-24T15:07:32.371Z,4.10
2018-12-24T15:12:33.659Z,3.33
2018-12-24T15:17:34.777Z,4.47
2018-12-24T15:22:35.900Z,3.30
2018-12-24T15:27:37.026Z,3.47
2018-12-24T15:32:38.119Z,2.50
2018-12-24T15:37:39.215Z,3.93
2018-12-24T15:42:40.316Z,5.47
2018-12-24T15:47:41.424Z,4.47
2018-12-24T15:52:42.595Z,3.83
2018-12-24T15:57:43.684Z,4.20
2018-12-24T16:02:44.788Z,3.27
2018-12-24T16:07:45.911Z,4.10
2018-12-24T16:12:47.015Z,4.10
2018-12-24T16:17:48.127Z,4.73
2018-12-24T16:22:49.231Z,9.63
2018-12-24T16:27:50.823Z,10.07
2018-12-24T16:32:51.924Z,14.30
2018-12-24T16:37:53.016Z,14.17
2018-12-24T16:42:54.148Z,12.27
2018-12-24T16:47:55.240Z,10.93
2018-12-24T16:52:56.370Z,5.80
2018-12-24T16:57:57.483Z,5.53
2018-12-24T17:02:58.586Z,7.67
2018-12-24T17:07:59.718Z,9.90
2018-12-24T17:13:00.822Z,7.53
2018-12-24T17:18:02.227Z,6.60
2018-12-24T17:23:03.536Z,6.53
2018-12-24T17:28:04.635Z,4.77
2018-12-24T17:33:05.748Z,4.83
2018-12-24T17:38:06.841Z,4.63
2018-12-24T17:43:07.931Z,4.33
2018-12-24T17:48:09.066Z,4.80
2018-12-24T17:53:10.175Z,4.97
2018-12-24T17:58:11.264Z,4.40
2018-12-24T18:03:12.364Z,4.47
2018-12-24T18:08:13.476Z,4.90
2018-12-24T18:13:14.575Z,4.87
2018-12-24T18:18:15.699Z,5.33
2018-12-24T18:23:19.862Z,6.37
2018-12-24T18:28:20.936Z,5.63
2018-12-24T18:33:22.036Z,5.53
2018-12-24T18:38:23.130Z,5.83
2018-12-24T18:43:24.224Z,12.13
2018-12-24T18:48:25.324Z,6.83
2018-12-24T18:53:26.440Z,7.90
2018-12-24T18:58:27.727Z,7.37
2018-12-24T19:03:28.844Z,7.00
2018-12-24T19:08:29.990Z,11.33
2018-12-24T19:13:31.095Z,10.67
2018-12-24T19:18:32.190Z,16.40
2018-12-24T19:23:33.293Z,9.40
2018-12-24T19:28:34.397Z,11.23
2018-12-24T19:33:37.427Z,9.60
2018-12-24T19:38:38.527Z,11.30
2018-12-24T19:43:39.635Z,12.00
2018-12-24T19:48:40.755Z,15.07
2018-12-24T19:53:41.855Z,11.83
2018-12-24T19:58:42.971Z,11.90
2018-12-24T20:03:44.073Z,12.07
2018-12-24T20:08:45.187Z,14.77
2018-12-24T20:13:46.296Z,14.17
2018-12-24T20:18:47.466Z,17.03
2018-12-24T20:23:48.655Z,16.40
2018-12-24T20:28:49.758Z,16.90
2018-12-24T20:33:50.871Z,16.50
2018-12-24T20:38:52.087Z,16.10
2018-12-24T20:43:53.368Z,15.80
2018-12-24T20:48:54.630Z,14.40
2018-12-24T20:53:56.122Z,16.30
2018-12-24T20:58:58.266Z,17.70
2018-12-24T21:03:59.771Z,15.80
2018-12-24T21:09:00.981Z,13.40
2018-12-24T21:14:02.089Z,19.03
2018-12-24T21:19:03.195Z,13.57
2018-12-24T21:24:04.301Z,14.13
2018-12-24T21:29:05.411Z,13.10
2018-12-24T21:34:06.508Z,12.90
2018-12-24T21:39:07.616Z,11.23
2018-12-24T21:44:08.723Z,13.57
2018-12-24T21:49:09.820Z,14.13
2018-12-24T21:54:10.957Z,15.13
2018-12-24T21:59:12.067Z,16.10
2018-12-24T22:04:13.172Z,13.83
2018-12-24T22:09:14.393Z,13.53
2018-12-24T22:14:15.497Z,14.53
2018-12-24T22:19:16.925Z,16.60
2018-12-24T22:24:18.030Z,17.67
2018-12-24T22:29:19.135Z,15.40
2018-12-24T22:34:20.261Z,14.70
2018-12-24T22:39:21.364Z,12.90
2018-12-24T22:44:22.457Z,12.67
2018-12-24T22:49:23.576Z,11.37
2018-12-24T22:54:24.693Z,9.10
2018-12-24T22:59:25.788Z,10.67
2018-12-24T23:04:26.889Z,9.90
2018-12-24T23:09:28.248Z,10.47
2018-12-24T23:14:29.353Z,11.23
2018-12-24T23:19:30.447Z,14.27
2018-12-24T23:24:31.549Z,12.97
2018-12-24T23:29:32.680Z,10.27
2018-12-24T23:34:33.801Z,9.17
2018-12-24T23:39:34.899Z,10.57
2018-12-24T23:44:35.999Z,19.43
2018-12-24T23:49:37.128Z,16.07
2018-12-24T23:54:38.224Z,9.03
2018-12-24T23:59:39.357Z,8.93
